ETNL/RLG METAR and TAF weather

Enter ICAO airport designator
Station Type Date Time Source
ETNL METAR 2020/09/27 16:20 UTC NOAA

ETNL 271620Z 23006KT 3000 -DZ BR SCT002 BKN008 OVC023 11/10 Q1004 YLO


Station Type Date Time Source
ETNL Decoded METAR 2020/09/27 16:20 UTC NOAA

Laage, Germany (ETNL) 53-55N 012-17E 46M
Sep 27, 2020 - 12:20 PM EDT / 2020.09.27 1620 UTC
Wind: from the SW (230 degrees) at 7 MPH (6 KT):0
Visibility: 1 mile(s):0
Sky conditions: overcast
Weather: light drizzle; mist
Temperature: 51 F (11 C)
Dew Point: 50 F (10 C)
Relative Humidity: 93%
Pressure (altimeter): 29.65 in. Hg (1004 hPa)
ob: ETNL 271620Z 23006KT 3000 -DZ BR SCT002 BKN008 OVC023 11/10 Q1004 YLO
cycle: 16

Station Type Date Time Source
ETNL TAF 2019/06/10 05:34 UTC NOAA

TAF ETNL 100400Z 1005/1018 06008KT 9999 NSW BKN100
TEMPO 1005/1018 07012KT 6000 -RA BKN050 OVC100 PROB30 1015/1018 VRB15G30KT 3000 TSRA BKN030CB BY ETGL

Example: see airport list